Flight Track Log - Related Links

Times and Time Zones

All times are in EDT time to prevent confusion due to time zone crossing. See the N980DS flight status page for this flight to view local times or setup timezone preferences in your user account.

Time Position Orientation Groundspeed Altitude Reporting Facility
EDT Latitude Longitude Course Direction KTS MPH feet Rate Location/Type
Sun 07:39:02 PM 36.7625 -76.4217 223° Southwest 80 92 1,600  Level Washington Center
Sun 07:39:35 PM 36.7561 -76.4292 228° Southwest 77 89 1,900 645 Climbing Washington Center
Sun 07:40:35 PM 36.7392 -76.4525 227° Southwest 88 101 2,600 763 Climbing Washington Center
Sun 07:41:33 PM 36.7203 -76.4781 235° Southwest 91 105 3,400 706 Climbing Washington Center
Sun 07:42:34 PM 36.7056 -76.5039 227° Southwest 91 105 4,000 295 Climbing Washington Center
Sun 07:43:35 PM 36.6803 -76.5372 227° Southwest 131 151 4,000  Level Washington Center
Sun 07:44:36 PM 36.6569 -76.5681 231° Southwest 133 153 4,000 -40 Level Washington Center
Sun 07:46:04 PM 36.6275 -76.6142 227° Southwest 133 153 3,900 -41 Descending Washington Center
Sun 07:47:02 PM 36.6042 -76.6450 229° Southwest 133 153 3,900  Level Washington Center
Sun 07:48:02 PM 36.5808 -76.6783 232° Southwest 133 153 3,900 99 Level Washington Center
Sun 07:49:03 PM 36.5597 -76.7117 230° Southwest 133 153 4,100 295 Climbing Washington Center
Sun 07:50:04 PM 36.5408 -76.7397 224° Southwest 127 146 4,500 403 Climbing Washington Center
Sun 07:51:02 PM 36.5217 -76.7628 230° Southwest 114 131 4,900 407 Climbing Washington Center
Sun 07:52:02 PM 36.5047 -76.7883 227° Southwest 109 125 5,300 545 Climbing Washington Center
Sun 07:53:03 PM 36.4836 -76.8164 230° Southwest 104 120 6,000 347 Climbing Washington Center
Sun 07:54:03 PM 36.4644 -76.8444 229° Southwest 110 127 6,000  Level Washington Center
Sun 07:55:02 PM 36.4392 -76.8803 230° Southwest 115 132 6,000 -50 Level Washington Center
Sun 07:56:03 PM 36.4200 -76.9083 231° Southwest 123 142 5,900 -49 Descending Washington Center
Sun 07:57:04 PM 36.3967 -76.9442 224° Southwest 130 150 5,900  Level Washington Center
Sun 07:58:04 PM 36.3714 -76.9747 233° Southwest 130 150 5,900  Level Washington Center
Sun 07:59:02 PM 36.3500 -77.0103 229° Southwest 130 150 5,900  Level Washington Center
Sun 08:00:02 PM 36.3267 -77.0433 227° Southwest 135 155 5,900  Level Washington Center
Sun 08:01:02 PM 36.3014 -77.0764 228° Southwest 135 155 5,900  Level Washington Center
Sun 08:02:03 PM 36.2758 -77.1119 229° Southwest 135 155 5,900 50 Level Washington Center
Sun 08:03:03 PM 36.2525 -77.1450 231° Southwest 135 155 6,000 50 Climbing Washington Center
Sun 08:04:04 PM 36.2289 -77.1808 226° Southwest 135 155 6,000  Level Washington Center
Sun 08:05:04 PM 36.2036 -77.2136 231° Southwest 135 155 6,000  Level Washington Center
Sun 08:06:02 PM 36.1822 -77.2467 235° Southwest 135 155 6,000  Level Washington Center
Sun 08:07:03 PM 36.1608 -77.2847 224° Southwest 135 155 6,000  Level Washington Center
Sun 08:08:03 PM 36.1333 -77.3175 231° Southwest 135 155 6,000  Level Washington Center
Sun 08:09:02 PM 36.1097 -77.3531 231° Southwest 129 148 6,000  Level Washington Center
Sun 08:10:02 PM 36.0864 -77.3886 228° Southwest 134 154 6,000  Level Washington Center
Sun 08:11:03 PM 36.0586 -77.4267 228° Southwest 134 154 6,000  Level Washington Center
Sun 08:12:04 PM 36.0331 -77.4619 224° Southwest 134 154 6,000  Level Washington Center
Sun 08:13:04 PM 36.0075 -77.4922 228° Southwest 129 148 6,000  Level Washington Center
Sun 08:14:05 PM 35.9819 -77.5275 228° Southwest 134 154 6,000  Level Washington Center
Sun 08:15:02 PM 35.9564 -77.5628 231° Southwest 134 154 6,000  Level Washington Center
Sun 08:16:03 PM 35.9347 -77.5956 228° Southwest 134 154 6,000  Level Washington Center
Sun 08:17:04 PM 35.9092 -77.6308 228° Southwest 134 154 6,000  Level Washington Center
Sun 08:18:02 PM 35.8836 -77.6661 230° Southwest 134 154 6,000  Level Washington Center
Sun 08:19:03 PM 35.8600 -77.7014 226° Southwest 134 154 6,000  Level Washington Center
Sun 08:20:03 PM 35.8364 -77.7314 226° Southwest 134 154 6,000  Level Washington Center
Sun 08:20:54 PM 35.8108 -77.7639 226° Southwest 135 155 6,000  Level Washington Center
Sun 08:21:55 PM 35.7831 -77.7992 234° Southwest 134 154 6,000  Level Washington Center
Sun 08:23:02 PM 35.7636 -77.8319 228° Southwest 134 154 6,000  Level Washington Center
Sun 08:23:56 PM 35.7358 -77.8694 228° Southwest 133 153 6,000  Level Washington Center
Sun 08:24:57 PM 35.7122 -77.9019 228° Southwest 134 154 6,000  Level Washington Center
Sun 08:25:58 PM 35.6844 -77.9394 231° Southwest 134 154 6,000  Level Washington Center
Sun 08:26:59 PM 35.6631 -77.9722 225° Southwest 135 155 6,000  Level Washington Center
Sun 08:27:59 PM 35.6350 -78.0072 225° Southwest 135 155 6,000  Level Washington Center
Sun 08:29:00 PM 35.6072 -78.0419 233° Southwest 135 155 6,000  Level Washington Center
Sun 08:30:00 PM 35.5858 -78.0772 228° Southwest 134 154 6,000  Level Washington Center
Sun 08:31:01 PM 35.5600 -78.1119 226° Southwest 134 154 6,000  Level Washington Center
Sun 08:32:02 PM 35.5342 -78.1444 230° Southwest 134 154 6,000  Level Washington Center
Sun 08:33:02 PM 35.5106 -78.1794 228° Southwest 134 154 6,000  Level Washington Center
Sun 08:34:03 PM 35.4847 -78.2142 226° Southwest 135 155 6,000  Level Washington Center
Sun 08:35:04 PM 35.4589 -78.2467 232° Southwest 135 155 6,000  Level Washington Center
Sun 08:36:04 PM 35.4331 -78.2867 228° Southwest 135 155 6,000  Level Washington Center
Sun 08:37:05 PM 35.4114 -78.3164 223° Southwest 134 154 6,000  Level Washington Center
Sun 08:38:05 PM 35.3814 -78.3511 234° Southwest 135 155 6,000  Level Washington Center
Sun 08:39:06 PM 35.3619 -78.3833 226° Southwest 134 154 6,000  Level Washington Center
Sun 08:46:15 PM 35.1931 -78.5982 226° Southwest  Level FlightAware Approximate
Sun 08:47:15 PM 35.1694 -78.6282 227° Southwest  Level FlightAware Approximate
Sun 08:48:15 PM 35.1464 -78.6588 226° Southwest  Level FlightAware Approximate
Sun 08:49:15 PM 35.1225 -78.6886 226° Southwest  Level FlightAware Approximate
Sun 08:50:15 PM 35.0987 -78.7184 226° Southwest  Level FlightAware Approximate
Sun 08:51:15 PM 35.0749 -78.7482 226° Southwest  Level FlightAware Approximate
Sun 08:52:15 PM 35.0510 -78.7779 226° Southwest  Level FlightAware Approximate
Sun 08:53:15 PM 35.0274 -78.8079 239° Southwest  Level FlightAware Approximate
Sun 08:54:15 PM 35.0096 -78.8435 239° Southwest  Level Estimated
Sun 08:55:15 PM 34.9919 -78.8790 239° Southwest  Level Estimated

Login

Don't have an account? Register now (free) for customized features, flight alerts, and more!